createdAt,value
2023-03-29T00:01:42.187Z,2.70
2023-03-29T00:04:10.540Z,2.83
2023-03-29T00:06:38.032Z,2.80
2023-03-29T00:09:06.208Z,2.80
2023-03-29T00:11:33.319Z,3.00
2023-03-29T00:13:59.965Z,2.80
2023-03-29T00:16:27.043Z,3.17
2023-03-29T00:18:53.724Z,2.70
2023-03-29T00:21:20.874Z,2.80
2023-03-29T00:23:47.591Z,2.47
2023-03-29T00:26:14.288Z,2.80
2023-03-29T00:28:41.021Z,2.90
2023-03-29T00:31:13.167Z,2.97
2023-03-29T00:33:40.830Z,2.70
2023-03-29T00:36:08.952Z,2.67
2023-03-29T00:38:36.350Z,2.70
2023-03-29T00:41:04.856Z,2.50
2023-03-29T00:43:31.781Z,2.97
2023-03-29T00:45:58.460Z,2.67
2023-03-29T00:48:28.141Z,3.37
2023-03-29T00:50:58.301Z,2.70
2023-03-29T00:53:33.657Z,3.00
2023-03-29T00:56:07.031Z,2.80
2023-03-29T00:58:45.595Z,2.57
2023-03-29T01:01:19.629Z,3.00
2023-03-29T01:03:50.684Z,2.60
2023-03-29T01:06:19.317Z,2.50
2023-03-29T01:08:51.759Z,2.97
2023-03-29T01:11:22.961Z,2.60
2023-03-29T01:13:55.185Z,2.80
2023-03-29T01:16:22.463Z,2.60
2023-03-29T01:18:49.186Z,2.50
2023-03-29T01:21:23.698Z,2.80
2023-03-29T01:23:53.421Z,2.83
2023-03-29T01:26:51.346Z,2.60
2023-03-29T01:29:28.776Z,2.60
2023-03-29T01:32:03.756Z,2.43
2023-03-29T01:34:39.072Z,2.73
2023-03-29T01:37:39.733Z,2.70
2023-03-29T01:40:06.919Z,2.53
2023-03-29T01:42:47.989Z,2.50
2023-03-29T01:45:27.708Z,2.37
2023-03-29T01:48:29.575Z,2.47
2023-03-29T01:51:04.669Z,2.60
2023-03-29T01:53:38.571Z,2.37
2023-03-29T01:56:26.684Z,2.53
2023-03-29T01:59:04.238Z,2.50
2023-03-29T02:01:34.948Z,2.43
2023-03-29T02:04:04.292Z,2.43
2023-03-29T02:06:32.920Z,2.87
2023-03-29T02:09:00.002Z,2.60
2023-03-29T02:11:29.511Z,2.80
2023-03-29T02:13:59.460Z,2.50
2023-03-29T02:16:26.201Z,2.50
2023-03-29T02:18:56.438Z,2.87
2023-03-29T02:21:33.184Z,2.90
2023-03-29T02:24:01.220Z,2.93
2023-03-29T02:26:29.219Z,2.80
2023-03-29T02:28:56.255Z,3.07
2023-03-29T02:31:32.527Z,2.93
2023-03-29T02:34:04.346Z,2.63
2023-03-29T02:36:34.860Z,2.87
2023-03-29T02:39:04.649Z,3.20
2023-03-29T02:41:31.950Z,2.70
2023-03-29T02:43:59.642Z,2.80
2023-03-29T02:46:26.748Z,2.80
2023-03-29T02:48:54.788Z,2.90
2023-03-29T02:51:25.723Z,3.10
2023-03-29T02:54:21.720Z,2.97
2023-03-29T02:56:50.749Z,3.00
2023-03-29T02:59:19.599Z,2.73
2023-03-29T03:01:46.503Z,3.07
2023-03-29T03:04:13.496Z,2.83
2023-03-29T03:06:40.906Z,3.00
2023-03-29T03:09:08.174Z,2.87
2023-03-29T03:11:35.525Z,3.03
2023-03-29T03:14:02.296Z,2.87
2023-03-29T03:16:29.025Z,3.17
2023-03-29T03:18:55.913Z,3.27
2023-03-29T03:21:23.061Z,2.67
2023-03-29T03:23:49.928Z,3.10
2023-03-29T03:26:18.245Z,3.00
2023-03-29T03:28:45.872Z,2.83
2023-03-29T03:31:15.537Z,3.10
2023-03-29T03:33:42.259Z,3.00
2023-03-29T03:36:11.050Z,2.60
2023-03-29T03:38:38.423Z,2.77
2023-03-29T03:41:07.077Z,3.00
2023-03-29T03:43:34.067Z,3.10
2023-03-29T03:46:00.882Z,2.40
2023-03-29T03:48:28.051Z,2.77
2023-03-29T03:50:57.154Z,3.10
2023-03-29T03:53:26.579Z,2.77
2023-03-29T03:55:56.122Z,2.90
2023-03-29T03:58:23.275Z,2.70
2023-03-29T04:00:50.931Z,2.60
2023-03-29T04:03:18.445Z,2.93
2023-03-29T04:05:46.676Z,2.73
2023-03-29T04:08:14.298Z,2.90
2023-03-29T04:10:41.336Z,3.63
2023-03-29T04:13:08.453Z,3.43
2023-03-29T04:15:38.728Z,3.27
2023-03-29T04:18:07.591Z,3.00
2023-03-29T04:20:34.788Z,3.13
2023-03-29T04:23:01.866Z,2.87
2023-03-29T04:25:29.104Z,3.00
2023-03-29T04:27:56.304Z,3.47
2023-03-29T04:30:23.437Z,4.00
2023-03-29T04:32:50.203Z,3.07
2023-03-29T04:35:16.937Z,3.80
2023-03-29T04:37:43.808Z,3.57
2023-03-29T04:40:15.093Z,3.13
2023-03-29T04:42:44.574Z,3.33
2023-03-29T04:45:14.065Z,3.20
2023-03-29T04:47:42.206Z,3.50
2023-03-29T04:50:09.339Z,3.77
2023-03-29T04:52:36.323Z,3.80
2023-03-29T04:55:04.913Z,3.83
2023-03-29T04:57:31.643Z,4.03
2023-03-29T04:59:58.423Z,3.73
2023-03-29T05:02:25.123Z,3.43
2023-03-29T05:04:52.421Z,3.93
2023-03-29T05:07:19.684Z,3.70
2023-03-29T05:09:46.482Z,4.40
2023-03-29T05:12:13.267Z,3.90
2023-03-29T05:14:40.061Z,4.40
2023-03-29T05:17:06.766Z,4.40
2023-03-29T05:19:33.876Z,4.17
2023-03-29T05:22:00.936Z,4.80
2023-03-29T05:24:27.718Z,5.27
2023-03-29T05:26:54.604Z,4.47
2023-03-29T05:29:21.841Z,4.33
2023-03-29T05:31:48.617Z,4.77
2023-03-29T05:34:15.345Z,4.17
2023-03-29T05:36:42.998Z,4.63
2023-03-29T05:39:11.099Z,4.97
2023-03-29T05:41:38.123Z,4.87
2023-03-29T05:44:04.851Z,4.43
2023-03-29T05:46:31.705Z,5.13
2023-03-29T05:48:58.383Z,4.53
2023-03-29T05:51:25.145Z,4.63
2023-03-29T05:53:52.334Z,4.77
2023-03-29T05:56:19.331Z,4.40
2023-03-29T05:58:54.847Z,5.17
2023-03-29T06:01:22.749Z,4.90
2023-03-29T06:03:49.731Z,4.70
2023-03-29T06:06:16.858Z,4.73
2023-03-29T06:08:44.355Z,4.67
2023-03-29T06:11:13.522Z,4.43
2023-03-29T06:13:41.649Z,5.00
2023-03-29T06:16:10.539Z,4.93
2023-03-29T06:18:40.419Z,4.63
2023-03-29T06:21:09.451Z,4.90
2023-03-29T06:23:36.712Z,4.50
2023-03-29T06:26:03.968Z,4.53
2023-03-29T06:28:30.819Z,5.20
2023-03-29T06:31:02.874Z,5.13
2023-03-29T06:33:32.500Z,4.87
2023-03-29T06:35:59.558Z,4.60
2023-03-29T06:38:28.689Z,5.00
2023-03-29T06:41:06.892Z,4.93
2023-03-29T06:43:34.955Z,4.90
2023-03-29T06:46:02.159Z,4.30
2023-03-29T06:48:29.308Z,4.40
2023-03-29T06:50:56.610Z,4.20
2023-03-29T06:53:23.443Z,4.03
2023-03-29T06:55:52.374Z,4.17
2023-03-29T06:58:19.043Z,4.03
2023-03-29T07:00:46.273Z,4.20
2023-03-29T07:03:20.139Z,3.80
2023-03-29T07:05:47.865Z,4.03
2023-03-29T07:08:16.661Z,4.40
2023-03-29T07:10:47.625Z,3.80
2023-03-29T07:13:15.751Z,3.93
2023-03-29T07:15:44.008Z,3.90
2023-03-29T07:18:11.602Z,3.80
2023-03-29T07:20:39.104Z,3.50
2023-03-29T07:23:07.097Z,3.27
2023-03-29T07:25:34.314Z,4.00
2023-03-29T07:28:02.272Z,4.10
2023-03-29T07:30:32.149Z,3.50
2023-03-29T07:32:59.700Z,3.67
2023-03-29T07:35:27.035Z,3.90
2023-03-29T07:37:55.965Z,3.60
2023-03-29T07:40:24.371Z,3.53
2023-03-29T07:42:57.399Z,3.77
2023-03-29T07:45:28.540Z,3.63
2023-03-29T07:47:59.740Z,3.20
2023-03-29T07:50:27.679Z,3.57
2023-03-29T07:52:54.940Z,3.87
2023-03-29T07:55:22.345Z,3.93
2023-03-29T07:57:49.968Z,3.13
2023-03-29T08:00:17.681Z,3.33
2023-03-29T08:02:45.959Z,3.07
2023-03-29T08:05:15.442Z,3.53
2023-03-29T08:07:46.795Z,3.57
2023-03-29T08:10:16.050Z,3.47
2023-03-29T08:12:43.332Z,3.43
2023-03-29T08:15:11.255Z,3.80
2023-03-29T08:17:38.194Z,3.20
2023-03-29T08:20:07.689Z,3.53
2023-03-29T08:22:34.647Z,3.63
2023-03-29T08:25:02.714Z,3.30
2023-03-29T08:27:29.501Z,3.40
2023-03-29T08:29:56.620Z,3.40
2023-03-29T08:32:23.588Z,4.10
2023-03-29T08:34:50.384Z,3.37
2023-03-29T08:37:17.458Z,3.47
2023-03-29T08:39:44.262Z,3.53
2023-03-29T08:42:38.767Z,3.47
2023-03-29T08:45:23.446Z,3.43
2023-03-29T08:48:12.645Z,3.50
2023-03-29T08:50:52.963Z,3.27
2023-03-29T08:53:34.986Z,3.40
2023-03-29T08:56:05.597Z,3.40
2023-03-29T08:58:34.065Z,3.50
2023-03-29T09:01:03.122Z,3.60
2023-03-29T09:04:05.336Z,3.80
2023-03-29T09:06:32.112Z,3.10
2023-03-29T09:08:58.856Z,3.60
2023-03-29T09:11:26.291Z,3.90
2023-03-29T09:14:08.892Z,3.43
2023-03-29T09:16:56.370Z,3.60
2023-03-29T09:19:40.213Z,3.80
2023-03-29T09:22:16.252Z,3.67
2023-03-29T09:25:04.238Z,4.13
2023-03-29T09:27:39.337Z,3.93
2023-03-29T09:30:25.934Z,3.80
2023-03-29T09:32:53.955Z,3.70
2023-03-29T09:35:28.045Z,4.10
2023-03-29T09:37:55.337Z,4.37
2023-03-29T09:40:31.301Z,3.80
2023-03-29T09:42:58.665Z,3.50
2023-03-29T09:45:25.390Z,3.73
2023-03-29T09:48:05.571Z,4.03
2023-03-29T09:50:42.834Z,3.80
2023-03-29T09:53:10.190Z,3.60
2023-03-29T09:55:39.869Z,3.70
2023-03-29T09:58:23.558Z,4.03
2023-03-29T10:00:50.587Z,3.70
2023-03-29T10:03:24.689Z,3.73
2023-03-29T10:05:55.838Z,4.13
2023-03-29T10:08:27.423Z,4.13
2023-03-29T10:10:55.093Z,4.07
2023-03-29T10:13:30.855Z,3.70
2023-03-29T10:16:09.429Z,4.27
2023-03-29T10:18:42.191Z,3.80
2023-03-29T10:21:15.819Z,3.80
2023-03-29T10:23:44.250Z,3.60
2023-03-29T10:26:24.485Z,3.87
2023-03-29T10:28:53.803Z,4.17
2023-03-29T10:31:21.485Z,4.50
2023-03-29T10:33:53.357Z,4.67
2023-03-29T10:36:27.475Z,3.97
2023-03-29T10:38:58.102Z,3.87
2023-03-29T10:41:27.405Z,4.00
2023-03-29T10:43:54.790Z,3.90
2023-03-29T10:46:30.587Z,3.80
2023-03-29T10:49:10.429Z,4.27
2023-03-29T10:51:37.683Z,3.93
2023-03-29T10:54:05.504Z,3.97
2023-03-29T10:56:41.588Z,4.00
2023-03-29T11:00:07.200Z,4.10
2023-03-29T11:03:10.292Z,4.50
2023-03-29T11:06:08.453Z,4.63
2023-03-29T11:08:49.639Z,4.57
2023-03-29T11:11:45.425Z,4.30
2023-03-29T11:14:28.183Z,4.60
2023-03-29T11:16:58.234Z,4.43
2023-03-29T11:19:25.147Z,4.27
2023-03-29T11:22:10.441Z,4.03
2023-03-29T11:24:43.361Z,4.23
2023-03-29T11:27:16.183Z,4.20
2023-03-29T11:29:54.690Z,4.10
2023-03-29T11:32:40.449Z,4.17
2023-03-29T11:35:25.536Z,4.13
2023-03-29T11:38:02.681Z,3.60
2023-03-29T11:40:41.302Z,3.90
2023-03-29T11:43:25.432Z,4.57
2023-03-29T11:46:20.885Z,4.40
2023-03-29T11:48:51.931Z,4.53
2023-03-29T11:51:38.488Z,4.30
2023-03-29T11:54:13.351Z,3.97
2023-03-29T11:56:44.762Z,4.10
2023-03-29T11:59:23.939Z,3.80
2023-03-29T12:01:56.503Z,2.80
2023-03-29T12:04:30.320Z,3.00
2023-03-29T12:07:13.714Z,3.27
2023-03-29T12:09:46.950Z,3.50
2023-03-29T12:12:25.272Z,3.80
2023-03-29T12:15:00.981Z,3.67
2023-03-29T12:17:31.541Z,3.20
2023-03-29T12:20:15.811Z,3.13
2023-03-29T12:22:51.102Z,3.27
2023-03-29T12:25:23.251Z,3.03
2023-03-29T12:28:11.808Z,3.53
2023-03-29T12:30:50.102Z,3.40
2023-03-29T12:33:55.243Z,3.30
2023-03-29T12:36:41.690Z,3.07
2023-03-29T12:39:14.342Z,3.23
2023-03-29T12:41:41.923Z,3.20
2023-03-29T12:44:13.709Z,3.40
2023-03-29T12:46:40.818Z,3.37
2023-03-29T12:49:15.243Z,3.33
2023-03-29T12:51:43.579Z,3.60
2023-03-29T12:54:22.240Z,3.67
2023-03-29T12:56:52.311Z,3.30
2023-03-29T12:59:40.818Z,2.77
2023-03-29T13:02:17.851Z,3.40
2023-03-29T13:04:58.344Z,3.37
2023-03-29T13:07:27.985Z,3.00
2023-03-29T13:10:03.853Z,3.00
2023-03-29T13:12:39.624Z,2.57
2023-03-29T13:15:22.298Z,2.37
2023-03-29T13:17:54.398Z,2.87
2023-03-29T13:20:33.240Z,2.50
2023-03-29T13:23:26.705Z,2.70
2023-03-29T13:26:19.245Z,2.53
2023-03-29T13:28:46.268Z,2.70
2023-03-29T13:31:22.191Z,2.90
2023-03-29T13:34:07.294Z,2.53
2023-03-29T13:36:50.750Z,2.77
2023-03-29T13:39:22.845Z,2.90
2023-03-29T13:41:51.924Z,2.70
2023-03-29T13:44:46.298Z,2.90
2023-03-29T13:47:19.408Z,2.90
2023-03-29T13:49:58.326Z,2.97
2023-03-29T13:52:32.943Z,3.17
2023-03-29T13:55:32.958Z,2.90
2023-03-29T13:58:08.578Z,3.03
2023-03-29T14:00:40.242Z,3.43
2023-03-29T14:03:13.430Z,2.67
2023-03-29T14:05:42.875Z,2.77
2023-03-29T14:08:22.604Z,2.80
2023-03-29T14:10:49.518Z,2.80
2023-03-29T14:13:18.861Z,2.43
2023-03-29T14:15:49.749Z,2.27
2023-03-29T14:18:19.408Z,2.10
2023-03-29T14:20:47.322Z,2.10
2023-03-29T14:23:19.482Z,2.00
2023-03-29T14:25:46.878Z,2.20
2023-03-29T14:28:25.497Z,2.47
2023-03-29T14:30:55.510Z,2.03
2023-03-29T14:33:28.010Z,2.13
2023-03-29T14:35:59.226Z,2.80
2023-03-29T14:38:27.302Z,2.20
2023-03-29T14:40:58.358Z,1.60
2023-03-29T14:43:27.694Z,1.60
2023-03-29T14:45:54.962Z,1.53
2023-03-29T14:48:22.332Z,1.83
2023-03-29T14:50:50.103Z,1.53
2023-03-29T14:53:19.883Z,1.90
2023-03-29T14:55:50.641Z,2.20
2023-03-29T14:58:23.538Z,2.10
2023-03-29T15:00:52.549Z,2.77
2023-03-29T15:03:22.995Z,3.13
2023-03-29T15:06:08.640Z,2.40
2023-03-29T15:08:38.854Z,2.90
2023-03-29T15:11:32.300Z,2.77
2023-03-29T15:14:05.014Z,2.60
2023-03-29T15:16:32.155Z,2.07
2023-03-29T15:19:01.794Z,2.10
2023-03-29T15:21:34.034Z,2.40
2023-03-29T15:24:02.747Z,2.10
2023-03-29T15:26:34.951Z,2.30
2023-03-29T15:29:08.377Z,2.37
2023-03-29T15:31:41.414Z,2.20
2023-03-29T15:34:14.769Z,2.23
2023-03-29T15:36:43.762Z,2.10
2023-03-29T15:39:15.783Z,2.40
2023-03-29T15:41:43.420Z,2.00
2023-03-29T15:44:11.389Z,1.90
2023-03-29T15:46:38.384Z,2.10
2023-03-29T15:49:05.342Z,2.20
2023-03-29T15:51:38.977Z,1.77
2023-03-29T15:54:06.882Z,2.00
2023-03-29T15:56:37.391Z,2.10
2023-03-29T15:59:04.806Z,2.10
2023-03-29T16:01:39.177Z,2.27
2023-03-29T16:04:18.122Z,1.83
2023-03-29T16:06:47.184Z,2.07
2023-03-29T16:09:15.871Z,2.10
2023-03-29T16:11:44.431Z,2.00
2023-03-29T16:14:27.472Z,2.20
2023-03-29T16:17:02.662Z,2.57
2023-03-29T16:19:31.306Z,2.50
2023-03-29T16:22:07.369Z,2.20
2023-03-29T16:24:35.737Z,1.97
2023-03-29T16:27:02.879Z,2.27
2023-03-29T16:29:30.047Z,2.30
2023-03-29T16:31:57.431Z,2.10
2023-03-29T16:34:24.388Z,2.00
2023-03-29T16:36:51.317Z,2.03
2023-03-29T16:39:18.745Z,2.27
2023-03-29T16:41:48.596Z,2.17
2023-03-29T16:44:23.556Z,1.93
2023-03-29T16:46:51.754Z,2.40
2023-03-29T16:49:18.480Z,2.07
2023-03-29T16:51:48.506Z,2.20
2023-03-29T16:54:17.310Z,2.57
2023-03-29T16:56:44.119Z,2.37
2023-03-29T16:59:11.019Z,2.50
2023-03-29T17:01:38.792Z,2.57
2023-03-29T17:04:05.679Z,2.70
2023-03-29T17:06:33.018Z,2.70
2023-03-29T17:09:02.854Z,2.23
2023-03-29T17:11:29.809Z,2.00
2023-03-29T17:13:56.958Z,2.53
2023-03-29T17:16:32.998Z,2.53
2023-03-29T17:19:01.921Z,2.50
2023-03-29T17:21:29.758Z,2.60
2023-03-29T17:23:56.564Z,2.97
2023-03-29T17:26:25.415Z,2.83
2023-03-29T17:28:52.146Z,2.90
2023-03-29T17:31:19.843Z,2.60
2023-03-29T17:33:47.693Z,2.70
2023-03-29T17:36:14.609Z,2.80
2023-03-29T17:38:43.235Z,3.20
2023-03-29T17:41:10.201Z,3.10
2023-03-29T17:43:37.076Z,2.60
2023-03-29T17:46:04.050Z,2.83
2023-03-29T17:48:36.992Z,2.80
2023-03-29T17:51:03.825Z,2.50
2023-03-29T17:53:33.656Z,2.77
2023-03-29T17:56:00.604Z,3.70
2023-03-29T17:58:27.414Z,3.80
2023-03-29T18:00:54.126Z,3.83
2023-03-29T18:03:20.968Z,3.20
2023-03-29T18:05:48.369Z,2.90
2023-03-29T18:08:15.255Z,2.40
2023-03-29T18:10:42.036Z,2.47
2023-03-29T18:13:14.013Z,2.33
2023-03-29T18:15:40.749Z,2.37
2023-03-29T18:18:07.619Z,2.50
2023-03-29T18:20:34.387Z,2.70
2023-03-29T18:23:01.297Z,2.50
2023-03-29T18:25:28.127Z,2.60
2023-03-29T18:27:54.897Z,3.73
2023-03-29T18:30:21.727Z,2.80
2023-03-29T18:32:48.557Z,2.60
2023-03-29T18:35:15.380Z,2.30
2023-03-29T18:37:42.039Z,2.60
2023-03-29T18:40:09.555Z,2.40
2023-03-29T18:42:36.432Z,2.50
2023-03-29T18:45:04.544Z,2.60
2023-03-29T18:47:36.433Z,2.73
2023-03-29T18:50:03.314Z,2.40
2023-03-29T18:52:30.174Z,2.97
2023-03-29T18:54:56.860Z,2.90
2023-03-29T18:57:23.717Z,3.13
2023-03-29T18:59:50.457Z,2.70
2023-03-29T19:02:17.444Z,3.03
2023-03-29T19:04:44.168Z,2.70
2023-03-29T19:07:10.944Z,3.10
2023-03-29T19:09:37.692Z,3.00
2023-03-29T19:12:04.738Z,2.80
2023-03-29T19:14:31.714Z,2.80
2023-03-29T19:17:05.979Z,3.37
2023-03-29T19:19:32.765Z,3.50
2023-03-29T19:22:00.709Z,3.13
2023-03-29T19:24:27.635Z,3.20
2023-03-29T19:26:54.736Z,3.10
2023-03-29T19:29:21.808Z,3.03
2023-03-29T19:31:48.634Z,3.30
2023-03-29T19:34:19.771Z,3.57
2023-03-29T19:36:47.095Z,3.13
2023-03-29T19:39:18.541Z,3.33
2023-03-29T19:41:45.386Z,3.00
2023-03-29T19:44:12.135Z,3.10
2023-03-29T19:46:39.105Z,3.37
2023-03-29T19:49:06.399Z,3.27
2023-03-29T19:51:33.108Z,3.20
2023-03-29T19:54:00.014Z,2.90
2023-03-29T19:56:26.874Z,3.30
2023-03-29T19:58:53.939Z,2.93
2023-03-29T20:01:21.184Z,3.03
2023-03-29T20:03:51.261Z,3.23
2023-03-29T20:06:19.431Z,2.97
2023-03-29T20:08:46.979Z,3.50
2023-03-29T20:11:14.948Z,2.97
2023-03-29T20:13:42.750Z,3.33
2023-03-29T20:16:11.863Z,3.40
2023-03-29T20:18:39.176Z,3.10
2023-03-29T20:21:06.819Z,3.17
2023-03-29T20:23:34.162Z,2.80
2023-03-29T20:26:01.578Z,2.70
2023-03-29T20:28:28.441Z,2.80
2023-03-29T20:30:55.298Z,2.63
2023-03-29T20:33:22.416Z,2.80
2023-03-29T20:35:49.627Z,2.77
2023-03-29T20:38:17.059Z,2.77
2023-03-29T20:40:45.053Z,3.00
2023-03-29T20:43:13.705Z,2.87
2023-03-29T20:45:52.513Z,3.37
2023-03-29T20:48:23.756Z,2.90
2023-03-29T20:50:51.040Z,3.10
2023-03-29T20:53:18.541Z,2.60
2023-03-29T20:55:45.967Z,2.90
2023-03-29T20:58:16.217Z,3.40
2023-03-29T21:00:43.995Z,2.77
2023-03-29T21:03:11.639Z,2.77
2023-03-29T21:05:39.221Z,2.50
2023-03-29T21:08:06.234Z,3.10
2023-03-29T21:10:33.095Z,2.67
2023-03-29T21:13:00.528Z,2.70
2023-03-29T21:15:30.645Z,2.67
2023-03-29T21:17:57.965Z,2.93
2023-03-29T21:20:24.853Z,2.67
2023-03-29T21:22:51.829Z,2.90
2023-03-29T21:25:18.969Z,3.07
2023-03-29T21:27:45.877Z,2.70
2023-03-29T21:30:12.837Z,2.73
2023-03-29T21:32:39.601Z,3.33
2023-03-29T21:35:07.117Z,3.00
2023-03-29T21:37:33.839Z,2.80
2023-03-29T21:40:00.753Z,3.20
2023-03-29T21:42:27.420Z,3.20
2023-03-29T21:44:54.228Z,2.90
2023-03-29T21:47:21.049Z,2.60
2023-03-29T21:49:47.836Z,2.90
2023-03-29T21:52:14.590Z,2.50
2023-03-29T21:54:41.267Z,2.40
2023-03-29T21:57:08.476Z,2.60
2023-03-29T21:59:35.182Z,2.93
2023-03-29T22:02:01.941Z,2.60
2023-03-29T22:04:36.594Z,2.80
2023-03-29T22:07:04.917Z,2.53
2023-03-29T22:09:33.034Z,2.73
2023-03-29T22:11:59.982Z,2.60
2023-03-29T22:14:28.711Z,2.70
2023-03-29T22:16:55.582Z,2.73
2023-03-29T22:19:22.338Z,2.40
2023-03-29T22:21:49.018Z,2.30
2023-03-29T22:24:16.625Z,2.83
2023-03-29T22:26:45.106Z,3.10
2023-03-29T22:29:12.210Z,2.87
2023-03-29T22:31:39.678Z,2.77
2023-03-29T22:34:06.900Z,2.77
2023-03-29T22:36:33.809Z,2.63
2023-03-29T22:39:00.780Z,2.50
2023-03-29T22:41:28.392Z,2.93
2023-03-29T22:43:56.969Z,2.47
2023-03-29T22:46:24.063Z,2.80
2023-03-29T22:48:51.360Z,2.50
2023-03-29T22:51:18.209Z,2.60
2023-03-29T22:53:47.242Z,2.47
2023-03-29T22:56:15.597Z,2.80
2023-03-29T22:58:42.453Z,2.70
2023-03-29T23:01:09.489Z,2.57
2023-03-29T23:03:37.002Z,2.97
2023-03-29T23:06:04.357Z,2.60
2023-03-29T23:08:33.151Z,2.27
2023-03-29T23:11:00.370Z,2.70
2023-03-29T23:13:29.395Z,3.00
2023-03-29T23:15:59.226Z,2.70
2023-03-29T23:18:28.775Z,2.87
2023-03-29T23:20:57.334Z,2.70
2023-03-29T23:23:26.028Z,2.90
2023-03-29T23:25:53.511Z,2.80
2023-03-29T23:28:23.767Z,2.97
2023-03-29T23:31:11.839Z,2.70
2023-03-29T23:33:42.940Z,2.70
2023-03-29T23:36:15.270Z,2.70
2023-03-29T23:38:43.599Z,2.70
2023-03-29T23:41:11.070Z,2.50
2023-03-29T23:43:40.729Z,2.77
2023-03-29T23:46:13.333Z,2.17
2023-03-29T23:48:40.172Z,2.30
2023-03-29T23:51:08.370Z,2.67
2023-03-29T23:53:35.040Z,2.70
2023-03-29T23:56:03.997Z,2.63
2023-03-29T23:58:33.131Z,2.57
